sensor_id;sensor_type;location;lat;lon;timestamp;temperature;humidity
16966;DHT22;8599;47.852;12.070;2023-04-03T00:00:06;4.40;99.90
16966;DHT22;8599;47.852;12.070;2023-04-03T00:02:34;4.50;99.90
16966;DHT22;8599;47.852;12.070;2023-04-03T00:05:00;4.50;99.90
16966;DHT22;8599;47.852;12.070;2023-04-03T00:07:27;4.40;99.90
16966;DHT22;8599;47.852;12.070;2023-04-03T00:09:55;4.40;99.90
16966;DHT22;8599;47.852;12.070;2023-04-03T00:12:22;4.40;99.90
16966;DHT22;8599;47.852;12.070;2023-04-03T00:14:49;4.40;99.90
16966;DHT22;8599;47.852;12.070;2023-04-03T00:17:16;4.50;99.90
16966;DHT22;8599;47.852;12.070;2023-04-03T00:19:43;4.40;99.90
16966;DHT22;8599;47.852;12.070;2023-04-03T00:22:10;4.40;99.90
16966;DHT22;8599;47.852;12.070;2023-04-03T00:24:37;4.40;99.90
16966;DHT22;8599;47.852;12.070;2023-04-03T00:27:05;4.40;99.90
16966;DHT22;8599;47.852;12.070;2023-04-03T00:29:31;4.50;99.90
16966;DHT22;8599;47.852;12.070;2023-04-03T00:31:58;4.50;99.90
16966;DHT22;8599;47.852;12.070;2023-04-03T00:34:25;4.50;99.90
16966;DHT22;8599;47.852;12.070;2023-04-03T00:36:52;4.50;99.90
16966;DHT22;8599;47.852;12.070;2023-04-03T00:39:18;4.50;99.90
16966;DHT22;8599;47.852;12.070;2023-04-03T00:41:45;4.50;99.90
16966;DHT22;8599;47.852;12.070;2023-04-03T00:44:22;4.40;99.90
16966;DHT22;8599;47.852;12.070;2023-04-03T00:46:49;4.40;99.90
16966;DHT22;8599;47.852;12.070;2023-04-03T00:49:16;4.30;99.90
16966;DHT22;8599;47.852;12.070;2023-04-03T00:51:43;4.20;99.90
16966;DHT22;8599;47.852;12.070;2023-04-03T00:54:10;4.20;99.90
16966;DHT22;8599;47.852;12.070;2023-04-03T00:56:37;4.20;99.90
16966;DHT22;8599;47.852;12.070;2023-04-03T00:59:08;4.30;99.90
16966;DHT22;8599;47.852;12.070;2023-04-03T01:01:38;4.30;99.90
16966;DHT22;8599;47.852;12.070;2023-04-03T01:04:05;4.40;99.90
16966;DHT22;8599;47.852;12.070;2023-04-03T01:06:35;4.30;99.90
16966;DHT22;8599;47.852;12.070;2023-04-03T01:09:03;4.30;99.90
16966;DHT22;8599;47.852;12.070;2023-04-03T01:11:30;4.30;99.90
16966;DHT22;8599;47.852;12.070;2023-04-03T01:13:57;4.30;99.90
16966;DHT22;8599;47.852;12.070;2023-04-03T01:16:24;4.30;99.90
16966;DHT22;8599;47.852;12.070;2023-04-03T01:18:52;4.30;99.90
16966;DHT22;8599;47.852;12.070;2023-04-03T01:21:54;4.50;99.90
16966;DHT22;8599;47.852;12.070;2023-04-03T01:24:32;4.40;99.90
16966;DHT22;8599;47.852;12.070;2023-04-03T01:27:01;4.40;99.90
16966;DHT22;8599;47.852;12.070;2023-04-03T01:29:29;4.20;99.90
16966;DHT22;8599;47.852;12.070;2023-04-03T01:31:58;4.20;99.90
16966;DHT22;8599;47.852;12.070;2023-04-03T01:34:26;4.10;99.90
16966;DHT22;8599;47.852;12.070;2023-04-03T01:36:53;4.10;99.90
16966;DHT22;8599;47.852;12.070;2023-04-03T01:39:21;4.20;99.90
16966;DHT22;8599;47.852;12.070;2023-04-03T01:41:48;4.10;99.90
16966;DHT22;8599;47.852;12.070;2023-04-03T01:44:15;4.20;99.90
16966;DHT22;8599;47.852;12.070;2023-04-03T01:46:42;4.10;99.90
16966;DHT22;8599;47.852;12.070;2023-04-03T01:49:10;4.20;99.90
16966;DHT22;8599;47.852;12.070;2023-04-03T01:51:37;4.20;99.90
16966;DHT22;8599;47.852;12.070;2023-04-03T01:54:04;4.20;99.90
16966;DHT22;8599;47.852;12.070;2023-04-03T01:56:31;4.20;99.90
16966;DHT22;8599;47.852;12.070;2023-04-03T01:58:57;4.20;99.90
16966;DHT22;8599;47.852;12.070;2023-04-03T02:01:24;4.20;99.90
16966;DHT22;8599;47.852;12.070;2023-04-03T02:03:52;4.20;99.90
16966;DHT22;8599;47.852;12.070;2023-04-03T02:06:20;4.30;99.90
16966;DHT22;8599;47.852;12.070;2023-04-03T02:08:47;4.30;99.90
16966;DHT22;8599;47.852;12.070;2023-04-03T02:11:14;4.30;99.90
16966;DHT22;8599;47.852;12.070;2023-04-03T02:13:41;4.30;99.90
16966;DHT22;8599;47.852;12.070;2023-04-03T02:16:09;4.20;99.90
16966;DHT22;8599;47.852;12.070;2023-04-03T02:18:37;4.10;99.90
16966;DHT22;8599;47.852;12.070;2023-04-03T02:21:04;4.00;99.90
16966;DHT22;8599;47.852;12.070;2023-04-03T02:23:32;4.00;99.90
16966;DHT22;8599;47.852;12.070;2023-04-03T02:26:06;4.00;99.90
16966;DHT22;8599;47.852;12.070;2023-04-03T02:28:33;4.00;99.90
16966;DHT22;8599;47.852;12.070;2023-04-03T02:31:00;4.10;99.90
16966;DHT22;8599;47.852;12.070;2023-04-03T02:33:27;4.00;99.90
16966;DHT22;8599;47.852;12.070;2023-04-03T02:35:54;4.00;99.90
16966;DHT22;8599;47.852;12.070;2023-04-03T02:38:21;4.00;99.90
16966;DHT22;8599;47.852;12.070;2023-04-03T02:40:50;4.10;99.90
16966;DHT22;8599;47.852;12.070;2023-04-03T02:43:17;4.10;99.90
16966;DHT22;8599;47.852;12.070;2023-04-03T02:45:44;4.10;99.90
16966;DHT22;8599;47.852;12.070;2023-04-03T02:48:11;4.00;99.90
16966;DHT22;8599;47.852;12.070;2023-04-03T02:50:40;4.00;99.90
16966;DHT22;8599;47.852;12.070;2023-04-03T02:53:06;3.90;99.90
16966;DHT22;8599;47.852;12.070;2023-04-03T02:55:33;3.90;99.90
16966;DHT22;8599;47.852;12.070;2023-04-03T02:58:01;3.90;99.90
16966;DHT22;8599;47.852;12.070;2023-04-03T03:00:29;3.80;99.90
16966;DHT22;8599;47.852;12.070;2023-04-03T03:02:56;3.80;99.90
16966;DHT22;8599;47.852;12.070;2023-04-03T03:05:22;3.70;99.90
16966;DHT22;8599;47.852;12.070;2023-04-03T03:07:49;3.70;99.90
16966;DHT22;8599;47.852;12.070;2023-04-03T03:10:16;3.80;99.90
16966;DHT22;8599;47.852;12.070;2023-04-03T03:12:43;3.80;99.90
16966;DHT22;8599;47.852;12.070;2023-04-03T03:15:11;3.90;99.90
16966;DHT22;8599;47.852;12.070;2023-04-03T03:17:38;3.80;99.90
16966;DHT22;8599;47.852;12.070;2023-04-03T03:20:06;3.90;99.90
16966;DHT22;8599;47.852;12.070;2023-04-03T03:22:34;3.90;99.90
16966;DHT22;8599;47.852;12.070;2023-04-03T03:25:01;4.00;99.90
16966;DHT22;8599;47.852;12.070;2023-04-03T03:27:28;3.90;99.90
16966;DHT22;8599;47.852;12.070;2023-04-03T03:29:55;3.90;99.90
16966;DHT22;8599;47.852;12.070;2023-04-03T03:32:23;3.90;99.90
16966;DHT22;8599;47.852;12.070;2023-04-03T03:34:50;4.00;99.90
16966;DHT22;8599;47.852;12.070;2023-04-03T03:37:17;4.00;99.90
16966;DHT22;8599;47.852;12.070;2023-04-03T03:39:43;4.10;99.90
16966;DHT22;8599;47.852;12.070;2023-04-03T03:42:10;4.00;99.90
16966;DHT22;8599;47.852;12.070;2023-04-03T03:44:37;4.10;99.90
16966;DHT22;8599;47.852;12.070;2023-04-03T03:47:04;4.20;99.90
16966;DHT22;8599;47.852;12.070;2023-04-03T03:49:33;4.30;99.90
16966;DHT22;8599;47.852;12.070;2023-04-03T03:52:00;4.30;99.90
16966;DHT22;8599;47.852;12.070;2023-04-03T03:54:27;4.30;99.90
16966;DHT22;8599;47.852;12.070;2023-04-03T03:56:54;4.30;99.90
16966;DHT22;8599;47.852;12.070;2023-04-03T03:59:21;4.10;99.90
16966;DHT22;8599;47.852;12.070;2023-04-03T04:01:47;4.10;99.90
16966;DHT22;8599;47.852;12.070;2023-04-03T04:04:14;4.10;99.90
16966;DHT22;8599;47.852;12.070;2023-04-03T04:06:42;4.20;99.90
16966;DHT22;8599;47.852;12.070;2023-04-03T04:09:09;4.10;99.90
16966;DHT22;8599;47.852;12.070;2023-04-03T04:11:36;4.20;99.90
16966;DHT22;8599;47.852;12.070;2023-04-03T04:14:05;4.20;99.90
16966;DHT22;8599;47.852;12.070;2023-04-03T04:16:32;4.30;99.90
16966;DHT22;8599;47.852;12.070;2023-04-03T04:18:58;4.30;99.90
16966;DHT22;8599;47.852;12.070;2023-04-03T04:21:25;4.30;99.90
16966;DHT22;8599;47.852;12.070;2023-04-03T04:23:53;4.20;99.90
16966;DHT22;8599;47.852;12.070;2023-04-03T04:26:20;4.20;99.90
16966;DHT22;8599;47.852;12.070;2023-04-03T04:28:47;4.20;99.90
16966;DHT22;8599;47.852;12.070;2023-04-03T04:31:14;4.20;99.90
16966;DHT22;8599;47.852;12.070;2023-04-03T04:33:41;4.10;99.90
16966;DHT22;8599;47.852;12.070;2023-04-03T04:36:07;4.10;99.90
16966;DHT22;8599;47.852;12.070;2023-04-03T04:38:34;4.10;99.90
16966;DHT22;8599;47.852;12.070;2023-04-03T04:41:02;4.20;99.90
16966;DHT22;8599;47.852;12.070;2023-04-03T04:43:29;4.20;99.90
16966;DHT22;8599;47.852;12.070;2023-04-03T04:46:04;4.20;99.90
16966;DHT22;8599;47.852;12.070;2023-04-03T04:48:31;4.20;99.90
16966;DHT22;8599;47.852;12.070;2023-04-03T04:50:58;4.10;99.90
16966;DHT22;8599;47.852;12.070;2023-04-03T04:53:25;4.10;99.90
16966;DHT22;8599;47.852;12.070;2023-04-03T04:55:52;4.00;99.90
16966;DHT22;8599;47.852;12.070;2023-04-03T04:58:20;4.00;99.90
16966;DHT22;8599;47.852;12.070;2023-04-03T05:00:47;4.00;99.90
16966;DHT22;8599;47.852;12.070;2023-04-03T05:03:14;4.10;99.90
16966;DHT22;8599;47.852;12.070;2023-04-03T05:05:41;4.10;99.90
16966;DHT22;8599;47.852;12.070;2023-04-03T05:08:08;4.10;99.90
16966;DHT22;8599;47.852;12.070;2023-04-03T05:10:35;4.10;99.90
16966;DHT22;8599;47.852;12.070;2023-04-03T05:13:01;4.00;99.90
16966;DHT22;8599;47.852;12.070;2023-04-03T05:15:30;4.10;99.90
16966;DHT22;8599;47.852;12.070;2023-04-03T05:17:56;4.20;99.90
16966;DHT22;8599;47.852;12.070;2023-04-03T05:20:23;4.20;99.90
16966;DHT22;8599;47.852;12.070;2023-04-03T05:22:50;4.20;99.90
16966;DHT22;8599;47.852;12.070;2023-04-03T05:25:17;4.10;99.90
16966;DHT22;8599;47.852;12.070;2023-04-03T05:27:44;4.20;99.90
16966;DHT22;8599;47.852;12.070;2023-04-03T05:30:12;4.10;99.90
16966;DHT22;8599;47.852;12.070;2023-04-03T05:32:40;4.20;99.90
16966;DHT22;8599;47.852;12.070;2023-04-03T05:35:08;4.20;99.90
16966;DHT22;8599;47.852;12.070;2023-04-03T05:37:36;4.30;99.90
16966;DHT22;8599;47.852;12.070;2023-04-03T05:40:03;4.30;99.90
16966;DHT22;8599;47.852;12.070;2023-04-03T05:42:30;4.20;99.90
16966;DHT22;8599;47.852;12.070;2023-04-03T05:44:57;4.20;99.90
16966;DHT22;8599;47.852;12.070;2023-04-03T05:47:24;4.20;99.90
16966;DHT22;8599;47.852;12.070;2023-04-03T05:49:52;4.10;99.90
16966;DHT22;8599;47.852;12.070;2023-04-03T05:52:22;4.10;99.90
16966;DHT22;8599;47.852;12.070;2023-04-03T05:54:49;4.10;99.90
16966;DHT22;8599;47.852;12.070;2023-04-03T05:57:16;4.10;99.90
16966;DHT22;8599;47.852;12.070;2023-04-03T05:59:43;4.10;99.90
16966;DHT22;8599;47.852;12.070;2023-04-03T06:02:11;4.00;99.90
16966;DHT22;8599;47.852;12.070;2023-04-03T06:04:39;4.10;99.90
16966;DHT22;8599;47.852;12.070;2023-04-03T06:07:10;4.20;99.90
16966;DHT22;8599;47.852;12.070;2023-04-03T06:09:38;4.20;99.90
16966;DHT22;8599;47.852;12.070;2023-04-03T06:12:05;4.30;99.90
16966;DHT22;8599;47.852;12.070;2023-04-03T06:14:32;4.30;99.90
16966;DHT22;8599;47.852;12.070;2023-04-03T06:16:59;4.40;99.90
16966;DHT22;8599;47.852;12.070;2023-04-03T06:19:27;4.40;99.90
16966;DHT22;8599;47.852;12.070;2023-04-03T06:21:54;4.40;99.90
16966;DHT22;8599;47.852;12.070;2023-04-03T06:24:22;4.20;99.90
16966;DHT22;8599;47.852;12.070;2023-04-03T06:26:50;4.20;99.90
16966;DHT22;8599;47.852;12.070;2023-04-03T06:29:18;4.20;99.90
16966;DHT22;8599;47.852;12.070;2023-04-03T06:31:45;4.20;99.90
16966;DHT22;8599;47.852;12.070;2023-04-03T06:34:12;4.20;99.90
16966;DHT22;8599;47.852;12.070;2023-04-03T06:36:39;4.30;99.90
16966;DHT22;8599;47.852;12.070;2023-04-03T06:39:06;4.10;99.90
16966;DHT22;8599;47.852;12.070;2023-04-03T06:41:35;4.10;99.90
16966;DHT22;8599;47.852;12.070;2023-04-03T06:44:01;4.20;99.90
16966;DHT22;8599;47.852;12.070;2023-04-03T06:46:28;4.30;99.90
16966;DHT22;8599;47.852;12.070;2023-04-03T06:48:55;4.30;99.90
16966;DHT22;8599;47.852;12.070;2023-04-03T06:51:24;4.40;99.90
16966;DHT22;8599;47.852;12.070;2023-04-03T06:53:53;4.40;99.90
16966;DHT22;8599;47.852;12.070;2023-04-03T06:56:20;4.30;99.90
16966;DHT22;8599;47.852;12.070;2023-04-03T06:58:49;4.30;99.90
16966;DHT22;8599;47.852;12.070;2023-04-03T07:01:17;4.20;99.90
16966;DHT22;8599;47.852;12.070;2023-04-03T07:03:46;4.30;99.90
16966;DHT22;8599;47.852;12.070;2023-04-03T07:06:15;4.30;99.90
16966;DHT22;8599;47.852;12.070;2023-04-03T07:08:42;4.20;99.90
16966;DHT22;8599;47.852;12.070;2023-04-03T07:11:10;4.30;99.90
16966;DHT22;8599;47.852;12.070;2023-04-03T07:13:38;4.40;99.90
16966;DHT22;8599;47.852;12.070;2023-04-03T07:16:08;4.30;99.90
16966;DHT22;8599;47.852;12.070;2023-04-03T07:18:35;4.20;99.90
16966;DHT22;8599;47.852;12.070;2023-04-03T07:21:03;4.30;99.90
16966;DHT22;8599;47.852;12.070;2023-04-03T07:23:30;4.30;99.90
16966;DHT22;8599;47.852;12.070;2023-04-03T07:25:56;4.40;99.90
16966;DHT22;8599;47.852;12.070;2023-04-03T07:28:24;4.20;99.90
16966;DHT22;8599;47.852;12.070;2023-04-03T07:30:52;4.30;99.90
16966;DHT22;8599;47.852;12.070;2023-04-03T07:33:22;4.40;99.90
16966;DHT22;8599;47.852;12.070;2023-04-03T07:35:50;4.30;99.90
16966;DHT22;8599;47.852;12.070;2023-04-03T07:38:16;4.40;99.90
16966;DHT22;8599;47.852;12.070;2023-04-03T07:40:46;4.20;99.90
16966;DHT22;8599;47.852;12.070;2023-04-03T07:43:14;4.40;99.90
16966;DHT22;8599;47.852;12.070;2023-04-03T07:45:41;4.50;99.90
16966;DHT22;8599;47.852;12.070;2023-04-03T07:48:08;4.50;99.90
16966;DHT22;8599;47.852;12.070;2023-04-03T07:50:37;4.50;99.90
16966;DHT22;8599;47.852;12.070;2023-04-03T07:53:06;4.50;99.90
16966;DHT22;8599;47.852;12.070;2023-04-03T07:55:33;4.50;99.90
16966;DHT22;8599;47.852;12.070;2023-04-03T07:58:02;4.50;99.90
16966;DHT22;8599;47.852;12.070;2023-04-03T08:00:30;4.60;99.90
16966;DHT22;8599;47.852;12.070;2023-04-03T08:02:57;4.80;99.90
16966;DHT22;8599;47.852;12.070;2023-04-03T08:05:23;4.50;99.90
16966;DHT22;8599;47.852;12.070;2023-04-03T08:07:52;4.60;99.90
16966;DHT22;8599;47.852;12.070;2023-04-03T08:10:19;4.60;99.90
16966;DHT22;8599;47.852;12.070;2023-04-03T08:12:46;4.70;99.90
16966;DHT22;8599;47.852;12.070;2023-04-03T08:15:13;4.70;99.90
16966;DHT22;8599;47.852;12.070;2023-04-03T08:17:41;4.70;99.90
16966;DHT22;8599;47.852;12.070;2023-04-03T08:20:10;4.60;99.90
16966;DHT22;8599;47.852;12.070;2023-04-03T08:22:37;4.60;99.90
16966;DHT22;8599;47.852;12.070;2023-04-03T08:25:06;4.50;99.90
16966;DHT22;8599;47.852;12.070;2023-04-03T08:27:32;4.50;99.90
16966;DHT22;8599;47.852;12.070;2023-04-03T08:30:00;4.60;99.90
16966;DHT22;8599;47.852;12.070;2023-04-03T08:32:28;4.60;99.90
16966;DHT22;8599;47.852;12.070;2023-04-03T08:34:56;4.70;99.90
16966;DHT22;8599;47.852;12.070;2023-04-03T08:37:23;4.70;99.90
16966;DHT22;8599;47.852;12.070;2023-04-03T08:39:51;4.90;99.90
16966;DHT22;8599;47.852;12.070;2023-04-03T08:42:33;5.00;99.90
16966;DHT22;8599;47.852;12.070;2023-04-03T08:45:08;4.90;99.90
16966;DHT22;8599;47.852;12.070;2023-04-03T08:47:39;4.80;99.90
16966;DHT22;8599;47.852;12.070;2023-04-03T08:50:13;4.90;99.90
16966;DHT22;8599;47.852;12.070;2023-04-03T08:52:42;5.00;99.90
16966;DHT22;8599;47.852;12.070;2023-04-03T08:55:21;4.90;99.90
16966;DHT22;8599;47.852;12.070;2023-04-03T08:57:53;4.90;99.90
16966;DHT22;8599;47.852;12.070;2023-04-03T09:00:25;5.10;99.90
16966;DHT22;8599;47.852;12.070;2023-04-03T09:02:55;5.00;99.90
16966;DHT22;8599;47.852;12.070;2023-04-03T09:05:32;5.10;99.90
16966;DHT22;8599;47.852;12.070;2023-04-03T09:08:09;5.20;99.90
16966;DHT22;8599;47.852;12.070;2023-04-03T09:10:40;5.20;99.90
16966;DHT22;8599;47.852;12.070;2023-04-03T09:13:13;5.20;99.90
16966;DHT22;8599;47.852;12.070;2023-04-03T09:15:44;5.00;99.90
16966;DHT22;8599;47.852;12.070;2023-04-03T09:18:15;5.00;99.90
16966;DHT22;8599;47.852;12.070;2023-04-03T09:20:46;5.10;99.90
16966;DHT22;8599;47.852;12.070;2023-04-03T09:23:21;5.20;99.90
16966;DHT22;8599;47.852;12.070;2023-04-03T09:25:50;5.00;99.90
16966;DHT22;8599;47.852;12.070;2023-04-03T09:28:21;5.20;99.90
16966;DHT22;8599;47.852;12.070;2023-04-03T09:30:48;5.30;99.90
16966;DHT22;8599;47.852;12.070;2023-04-03T09:33:15;5.40;99.90
16966;DHT22;8599;47.852;12.070;2023-04-03T09:35:43;5.50;99.90
16966;DHT22;8599;47.852;12.070;2023-04-03T09:38:19;5.50;99.90
16966;DHT22;8599;47.852;12.070;2023-04-03T09:40:47;5.40;99.90
16966;DHT22;8599;47.852;12.070;2023-04-03T09:43:28;5.40;99.90
16966;DHT22;8599;47.852;12.070;2023-04-03T09:45:56;5.40;99.90
16966;DHT22;8599;47.852;12.070;2023-04-03T09:48:24;5.40;99.90
16966;DHT22;8599;47.852;12.070;2023-04-03T09:50:57;5.50;99.90
16966;DHT22;8599;47.852;12.070;2023-04-03T09:53:33;5.40;99.90
16966;DHT22;8599;47.852;12.070;2023-04-03T09:56:03;5.50;99.90
16966;DHT22;8599;47.852;12.070;2023-04-03T09:58:35;5.50;99.90
16966;DHT22;8599;47.852;12.070;2023-04-03T10:01:04;5.60;99.90
16966;DHT22;8599;47.852;12.070;2023-04-03T10:03:33;5.80;99.90
16966;DHT22;8599;47.852;12.070;2023-04-03T10:06:02;5.90;99.90
16966;DHT22;8599;47.852;12.070;2023-04-03T10:08:31;5.90;99.90
16966;DHT22;8599;47.852;12.070;2023-04-03T10:11:14;5.70;99.90
16966;DHT22;8599;47.852;12.070;2023-04-03T10:13:54;5.60;99.90
16966;DHT22;8599;47.852;12.070;2023-04-03T10:16:26;5.30;99.90
16966;DHT22;8599;47.852;12.070;2023-04-03T10:21:50;5.10;99.90
16966;DHT22;8599;47.852;12.070;2023-04-03T10:24:21;5.20;99.90
16966;DHT22;8599;47.852;12.070;2023-04-03T10:26:56;5.20;99.90
16966;DHT22;8599;47.852;12.070;2023-04-03T10:29:36;5.20;99.90
16966;DHT22;8599;47.852;12.070;2023-04-03T10:35:03;5.00;99.90
16966;DHT22;8599;47.852;12.070;2023-04-03T10:37:42;5.10;99.90
16966;DHT22;8599;47.852;12.070;2023-04-03T10:40:23;5.10;99.90
16966;DHT22;8599;47.852;12.070;2023-04-03T10:42:56;5.30;99.90
16966;DHT22;8599;47.852;12.070;2023-04-03T10:45:27;5.40;99.90
16966;DHT22;8599;47.852;12.070;2023-04-03T10:48:03;5.60;99.90
16966;DHT22;8599;47.852;12.070;2023-04-03T10:50:39;5.60;99.90
16966;DHT22;8599;47.852;12.070;2023-04-03T10:53:17;5.70;99.90
16966;DHT22;8599;47.852;12.070;2023-04-03T10:55:51;5.60;99.90
16966;DHT22;8599;47.852;12.070;2023-04-03T10:58:25;5.90;99.90
16966;DHT22;8599;47.852;12.070;2023-04-03T11:00:59;6.10;99.90
16966;DHT22;8599;47.852;12.070;2023-04-03T11:03:31;6.20;99.90
16966;DHT22;8599;47.852;12.070;2023-04-03T11:06:02;6.30;99.90
16966;DHT22;8599;47.852;12.070;2023-04-03T11:08:36;6.20;99.90
16966;DHT22;8599;47.852;12.070;2023-04-03T11:11:08;6.30;99.90
16966;DHT22;8599;47.852;12.070;2023-04-03T11:13:40;6.30;99.90
16966;DHT22;8599;47.852;12.070;2023-04-03T11:16:13;6.20;99.90
16966;DHT22;8599;47.852;12.070;2023-04-03T11:18:44;6.30;99.90
16966;DHT22;8599;47.852;12.070;2023-04-03T11:21:19;6.10;99.90
16966;DHT22;8599;47.852;12.070;2023-04-03T11:23:49;5.90;99.90
16966;DHT22;8599;47.852;12.070;2023-04-03T11:26:19;5.80;99.90
16966;DHT22;8599;47.852;12.070;2023-04-03T11:28:52;5.90;99.90
16966;DHT22;8599;47.852;12.070;2023-04-03T11:31:37;5.90;99.90
16966;DHT22;8599;47.852;12.070;2023-04-03T11:34:17;5.90;99.90
16966;DHT22;8599;47.852;12.070;2023-04-03T11:36:47;5.70;99.90
16966;DHT22;8599;47.852;12.070;2023-04-03T11:39:21;5.80;99.90
16966;DHT22;8599;47.852;12.070;2023-04-03T11:41:49;5.70;99.90
16966;DHT22;8599;47.852;12.070;2023-04-03T11:44:30;5.40;99.90
16966;DHT22;8599;47.852;12.070;2023-04-03T11:47:00;5.10;99.90
16966;DHT22;8599;47.852;12.070;2023-04-03T11:49:58;5.00;99.90
16966;DHT22;8599;47.852;12.070;2023-04-03T11:53:00;4.90;99.90
16966;DHT22;8599;47.852;12.070;2023-04-03T11:55:52;4.80;99.90
16966;DHT22;8599;47.852;12.070;2023-04-03T11:58:22;4.70;99.90
16966;DHT22;8599;47.852;12.070;2023-04-03T12:00:53;4.70;99.90
16966;DHT22;8599;47.852;12.070;2023-04-03T12:04:03;4.70;99.90
16966;DHT22;8599;47.852;12.070;2023-04-03T12:07:09;4.70;99.90
16966;DHT22;8599;47.852;12.070;2023-04-03T12:10:17;4.60;99.90
16966;DHT22;8599;47.852;12.070;2023-04-03T12:12:57;4.60;99.90
16966;DHT22;8599;47.852;12.070;2023-04-03T12:15:52;4.50;99.90
16966;DHT22;8599;47.852;12.070;2023-04-03T12:18:58;4.40;99.90
16966;DHT22;8599;47.852;12.070;2023-04-03T12:24:27;4.40;99.90
16966;DHT22;8599;47.852;12.070;2023-04-03T12:27:13;4.40;99.90
16966;DHT22;8599;47.852;12.070;2023-04-03T12:29:47;4.30;99.90
16966;DHT22;8599;47.852;12.070;2023-04-03T12:32:24;4.20;99.90
16966;DHT22;8599;47.852;12.070;2023-04-03T12:35:08;4.30;99.90
16966;DHT22;8599;47.852;12.070;2023-04-03T12:37:48;4.30;99.90
16966;DHT22;8599;47.852;12.070;2023-04-03T12:40:24;4.30;99.90
16966;DHT22;8599;47.852;12.070;2023-04-03T12:43:03;4.40;99.90
16966;DHT22;8599;47.852;12.070;2023-04-03T12:45:41;4.40;99.90
16966;DHT22;8599;47.852;12.070;2023-04-03T12:48:14;4.50;99.90
16966;DHT22;8599;47.852;12.070;2023-04-03T12:50:44;4.50;99.90
16966;DHT22;8599;47.852;12.070;2023-04-03T12:53:15;4.50;99.90
16966;DHT22;8599;47.852;12.070;2023-04-03T12:55:43;4.60;99.90
16966;DHT22;8599;47.852;12.070;2023-04-03T12:58:15;4.50;99.90
16966;DHT22;8599;47.852;12.070;2023-04-03T13:00:42;4.60;99.90
16966;DHT22;8599;47.852;12.070;2023-04-03T13:03:22;4.60;99.90
16966;DHT22;8599;47.852;12.070;2023-04-03T13:05:54;4.60;99.90
16966;DHT22;8599;47.852;12.070;2023-04-03T13:08:23;4.40;99.90
16966;DHT22;8599;47.852;12.070;2023-04-03T13:10:54;4.40;99.90
16966;DHT22;8599;47.852;12.070;2023-04-03T13:13:22;4.50;99.90
16966;DHT22;8599;47.852;12.070;2023-04-03T13:15:52;4.60;99.90
16966;DHT22;8599;47.852;12.070;2023-04-03T13:18:25;4.60;99.90
16966;DHT22;8599;47.852;12.070;2023-04-03T13:20:59;4.70;99.90
16966;DHT22;8599;47.852;12.070;2023-04-03T13:23:28;4.70;99.90
16966;DHT22;8599;47.852;12.070;2023-04-03T13:25:55;4.90;99.90
16966;DHT22;8599;47.852;12.070;2023-04-03T13:28:26;4.90;99.90
16966;DHT22;8599;47.852;12.070;2023-04-03T13:30:56;4.80;99.90
16966;DHT22;8599;47.852;12.070;2023-04-03T13:33:27;4.70;99.90
16966;DHT22;8599;47.852;12.070;2023-04-03T13:35:57;4.60;99.90
16966;DHT22;8599;47.852;12.070;2023-04-03T13:38:26;4.60;99.90
16966;DHT22;8599;47.852;12.070;2023-04-03T13:40:58;4.80;99.90
16966;DHT22;8599;47.852;12.070;2023-04-03T13:43:27;4.90;99.90
16966;DHT22;8599;47.852;12.070;2023-04-03T13:46:04;4.70;99.90
16966;DHT22;8599;47.852;12.070;2023-04-03T13:48:37;4.80;99.90
16966;DHT22;8599;47.852;12.070;2023-04-03T13:51:18;4.70;99.90
16966;DHT22;8599;47.852;12.070;2023-04-03T13:53:47;4.60;99.90
16966;DHT22;8599;47.852;12.070;2023-04-03T13:56:22;4.70;99.90
16966;DHT22;8599;47.852;12.070;2023-04-03T13:59:01;4.90;99.90
16966;DHT22;8599;47.852;12.070;2023-04-03T14:01:40;5.00;99.90
16966;DHT22;8599;47.852;12.070;2023-04-03T14:04:14;4.90;99.90
16966;DHT22;8599;47.852;12.070;2023-04-03T14:06:44;5.00;99.90
16966;DHT22;8599;47.852;12.070;2023-04-03T14:09:11;4.90;99.90
16966;DHT22;8599;47.852;12.070;2023-04-03T14:11:40;4.60;99.90
16966;DHT22;8599;47.852;12.070;2023-04-03T14:14:13;4.50;99.90
16966;DHT22;8599;47.852;12.070;2023-04-03T14:16:42;4.60;99.90
16966;DHT22;8599;47.852;12.070;2023-04-03T14:19:18;4.70;99.90
16966;DHT22;8599;47.852;12.070;2023-04-03T14:21:47;4.60;99.90
16966;DHT22;8599;47.852;12.070;2023-04-03T14:24:14;4.50;99.90
16966;DHT22;8599;47.852;12.070;2023-04-03T14:26:42;4.50;99.90
16966;DHT22;8599;47.852;12.070;2023-04-03T14:29:11;4.50;99.90
16966;DHT22;8599;47.852;12.070;2023-04-03T14:31:38;4.50;99.90
16966;DHT22;8599;47.852;12.070;2023-04-03T14:34:05;4.70;99.90
16966;DHT22;8599;47.852;12.070;2023-04-03T14:36:33;4.90;99.90
16966;DHT22;8599;47.852;12.070;2023-04-03T14:39:03;5.10;99.90
16966;DHT22;8599;47.852;12.070;2023-04-03T14:41:30;5.30;99.90
16966;DHT22;8599;47.852;12.070;2023-04-03T14:43:57;5.40;99.90
16966;DHT22;8599;47.852;12.070;2023-04-03T14:46:28;5.50;99.90
16966;DHT22;8599;47.852;12.070;2023-04-03T14:48:56;5.60;99.90
16966;DHT22;8599;47.852;12.070;2023-04-03T14:51:23;5.60;99.90
16966;DHT22;8599;47.852;12.070;2023-04-03T14:53:50;5.70;99.90
16966;DHT22;8599;47.852;12.070;2023-04-03T14:56:22;5.70;99.90
16966;DHT22;8599;47.852;12.070;2023-04-03T14:58:54;5.70;99.90
16966;DHT22;8599;47.852;12.070;2023-04-03T15:01:21;5.70;99.90
16966;DHT22;8599;47.852;12.070;2023-04-03T15:03:48;5.60;99.90
16966;DHT22;8599;47.852;12.070;2023-04-03T15:06:15;5.60;99.90
16966;DHT22;8599;47.852;12.070;2023-04-03T15:08:42;5.60;99.90
16966;DHT22;8599;47.852;12.070;2023-04-03T15:11:10;5.70;99.90
16966;DHT22;8599;47.852;12.070;2023-04-03T15:13:39;5.70;99.90
16966;DHT22;8599;47.852;12.070;2023-04-03T15:16:10;5.80;99.90
16966;DHT22;8599;47.852;12.070;2023-04-03T15:18:39;5.90;99.90
16966;DHT22;8599;47.852;12.070;2023-04-03T15:21:06;6.00;99.90
16966;DHT22;8599;47.852;12.070;2023-04-03T15:23:33;6.10;99.90
16966;DHT22;8599;47.852;12.070;2023-04-03T15:26:00;6.20;99.90
16966;DHT22;8599;47.852;12.070;2023-04-03T15:28:28;6.30;99.90
16966;DHT22;8599;47.852;12.070;2023-04-03T15:30:58;6.60;99.90
16966;DHT22;8599;47.852;12.070;2023-04-03T15:33:25;6.80;99.90
16966;DHT22;8599;47.852;12.070;2023-04-03T15:35:52;6.80;99.90
16966;DHT22;8599;47.852;12.070;2023-04-03T15:38:19;6.90;99.90
16966;DHT22;8599;47.852;12.070;2023-04-03T15:40:46;6.80;99.90
16966;DHT22;8599;47.852;12.070;2023-04-03T15:43:14;6.70;99.90
16966;DHT22;8599;47.852;12.070;2023-04-03T15:45:42;6.70;99.90
16966;DHT22;8599;47.852;12.070;2023-04-03T15:48:11;6.60;99.90
16966;DHT22;8599;47.852;12.070;2023-04-03T15:50:39;6.50;99.90
16966;DHT22;8599;47.852;12.070;2023-04-03T15:53:06;6.40;99.90
16966;DHT22;8599;47.852;12.070;2023-04-03T15:55:34;6.40;99.90
16966;DHT22;8599;47.852;12.070;2023-04-03T15:58:01;6.50;99.90
16966;DHT22;8599;47.852;12.070;2023-04-03T16:00:29;6.50;99.90
16966;DHT22;8599;47.852;12.070;2023-04-03T16:03:00;6.60;99.90
16966;DHT22;8599;47.852;12.070;2023-04-03T16:05:31;6.60;99.90
16966;DHT22;8599;47.852;12.070;2023-04-03T16:07:59;6.60;99.90
16966;DHT22;8599;47.852;12.070;2023-04-03T16:10:27;6.50;99.90